Time;durP1;ratioP1;P1;durP2;ratioP2;P2;SDS_P1;SDS_P2;PMS_P1;PMS_P2;Temp;Humidity;BMP_temperature;BMP_pressure;BME280_temperature;BME280_humidity;BME280_pressure;Samples;Min_cycle;Max_cycle;Signal;HPM_P1;HPM_P2
2023/08/08 00:00:51;;;;;;;4.88;0.90;;;13.40;99.90;;;;;;5064747;28;20498;-68
2023/08/08 00:03:16;;;;;;;2.90;1.10;;;13.40;99.90;;;;;;5067014;28;20048;-67
2023/08/08 00:05:42;;;;;;;7.25;1.88;;;13.30;99.90;;;;;;5064461;28;20044;-67
2023/08/08 00:08:08;;;;;;;3.53;1.10;;;13.30;99.90;;;;;;5065923;28;20153;-67
2023/08/08 00:10:33;;;;;;;1.83;0.82;;;13.30;99.90;;;;;;5053951;28;20514;-67
2023/08/08 00:12:59;;;;;;;1.67;1.02;;;13.30;99.90;;;;;;5065646;28;20475;-67
2023/08/08 00:15:25;;;;;;;7.53;2.05;;;13.30;99.90;;;;;;5047605;28;20470;-67
2023/08/08 00:17:51;;;;;;;1.25;0.77;;;13.30;99.90;;;;;;5065537;28;20055;-67
2023/08/08 00:20:16;;;;;;;2.80;0.80;;;13.30;99.90;;;;;;5053380;28;20044;-67
2023/08/08 00:22:42;;;;;;;2.08;1.00;;;13.20;99.90;;;;;;5066708;28;20456;-67
2023/08/08 00:25:08;;;;;;;2.35;1.08;;;13.20;99.90;;;;;;5067249;28;20158;-67
2023/08/08 00:27:34;;;;;;;5.05;1.17;;;13.20;99.90;;;;;;5064829;28;20056;-67
2023/08/08 00:30:01;;;;;;;1.77;1.10;;;13.20;99.90;;;;;;5067137;28;20040;-67
2023/08/08 00:32:26;;;;;;;5.28;1.20;;;13.10;99.90;;;;;;5066130;28;20466;-67
2023/08/08 00:34:52;;;;;;;4.80;0.80;;;13.10;99.90;;;;;;5065181;28;20076;-67
2023/08/08 00:37:18;;;;;;;2.45;1.25;;;13.10;99.90;;;;;;5053810;28;20051;-67
2023/08/08 00:39:45;;;;;;;2.53;0.77;;;13.10;99.90;;;;;;5067188;28;20109;-67
2023/08/08 00:42:13;;;;;;;2.65;1.40;;;13.10;99.90;;;;;;5067001;28;20060;-66
2023/08/08 00:44:40;;;;;;;3.42;1.25;;;13.10;99.90;;;;;;5064506;28;20105;-66
2023/08/08 00:47:10;;;;;;;1.88;0.90;;;13.10;99.90;;;;;;5065923;28;20090;-67
2023/08/08 00:49:36;;;;;;;3.63;1.20;;;13.10;99.90;;;;;;5047668;28;20482;-67
2023/08/08 00:52:03;;;;;;;7.05;1.13;;;13.10;99.90;;;;;;5062519;28;20083;-67
2023/08/08 00:54:29;;;;;;;3.67;1.10;;;13.10;99.90;;;;;;5053965;28;20063;-67
2023/08/08 00:56:54;;;;;;;4.75;1.38;;;13.20;99.90;;;;;;5070539;28;20060;-67
2023/08/08 00:59:21;;;;;;;5.18;1.00;;;13.20;99.90;;;;;;5068942;28;20781;-67
2023/08/08 01:01:47;;;;;;;2.42;1.00;;;13.20;99.90;;;;;;5069373;28;20056;-67
2023/08/08 01:04:13;;;;;;;2.25;0.98;;;13.20;99.90;;;;;;5069311;28;20056;-68
2023/08/08 01:06:56;;;;;;;6.80;1.05;;;13.20;99.90;;;;;;5068977;28;20045;-66
2023/08/08 01:09:30;;;;;;;3.78;1.10;;;13.20;99.90;;;;;;5047584;28;20056;-67
2023/08/08 01:11:56;;;;;;;3.90;1.35;;;13.20;99.90;;;;;;5060267;28;20055;-67
2023/08/08 01:14:26;;;;;;;4.68;1.20;;;13.20;99.90;;;;;;5070251;28;20354;-67
2023/08/08 01:16:57;;;;;;;2.05;1.00;;;13.20;99.90;;;;;;5068931;28;20105;-67
2023/08/08 01:19:27;;;;;;;1.90;0.88;;;13.20;99.90;;;;;;5068667;28;20445;-67
2023/08/08 01:21:54;;;;;;;4.97;1.00;;;13.20;99.90;;;;;;5059832;28;20384;-67
2023/08/08 01:24:27;;;;;;;5.15;1.00;;;13.20;99.90;;;;;;5064705;28;20094;-67
2023/08/08 01:26:53;;;;;;;3.40;1.15;;;13.30;99.90;;;;;;5069167;28;20040;-67
2023/08/08 01:29:19;;;;;;;2.95;0.85;;;13.30;99.90;;;;;;5069168;28;20068;-66
2023/08/08 01:31:45;;;;;;;1.25;0.90;;;13.30;99.90;;;;;;5068930;28;20132;-67
2023/08/08 01:34:11;;;;;;;4.32;1.00;;;13.30;99.90;;;;;;5070428;28;20124;-67
2023/08/08 01:37:06;;;;;;;2.08;1.20;;;13.30;99.90;;;;;;5067634;28;20036;-67
2023/08/08 01:39:32;;;;;;;6.38;1.30;;;13.30;99.90;;;;;;5065472;28;20098;-67
2023/08/08 01:42:00;;;;;;;5.18;1.52;;;13.30;99.90;;;;;;5068743;28;20048;-67
2023/08/08 01:44:27;;;;;;;1.50;1.00;;;13.30;99.90;;;;;;5085344;28;20087;-67
2023/08/08 01:46:53;;;;;;;3.67;1.08;;;13.30;99.90;;;;;;5068411;28;20432;-67
2023/08/08 01:49:19;;;;;;;0.88;0.77;;;13.20;99.90;;;;;;5067542;28;20048;-67
2023/08/08 01:51:45;;;;;;;3.38;0.98;;;13.30;99.90;;;;;;5068673;28;20052;-67
2023/08/08 01:54:11;;;;;;;1.77;1.00;;;13.20;99.90;;;;;;5068169;28;20123;-67
2023/08/08 01:56:36;;;;;;;1.63;1.13;;;13.20;99.90;;;;;;5069574;28;20071;-67
2023/08/08 01:59:02;;;;;;;2.83;1.02;;;13.20;99.90;;;;;;5068052;28;20040;-67
2023/08/08 02:01:28;;;;;;;4.53;1.15;;;13.20;99.90;;;;;;5051264;28;20047;-67
2023/08/08 02:03:53;;;;;;;2.95;1.15;;;13.20;99.90;;;;;;5067335;28;20119;-67
2023/08/08 02:06:19;;;;;;;2.80;1.20;;;13.20;99.90;;;;;;5068761;28;20044;-67
2023/08/08 02:08:45;;;;;;;3.72;1.20;;;13.20;99.90;;;;;;5068982;28;20598;-67
2023/08/08 02:11:11;;;;;;;4.40;1.20;;;13.20;99.90;;;;;;5054209;28;20068;-66
2023/08/08 02:13:37;;;;;;;2.08;1.10;;;13.30;99.90;;;;;;5068434;28;20068;-67
2023/08/08 02:16:03;;;;;;;1.50;1.08;;;13.30;99.90;;;;;;5068240;28;20043;-66
2023/08/08 02:18:29;;;;;;;3.33;1.20;;;13.30;99.90;;;;;;5069438;28;20045;-67
2023/08/08 02:20:55;;;;;;;6.05;1.10;;;13.30;99.90;;;;;;5067929;28;20082;-67
2023/08/08 02:23:20;;;;;;;6.57;1.20;;;13.40;99.90;;;;;;5067975;28;20049;-66
2023/08/08 02:25:46;;;;;;;1.45;0.88;;;13.30;99.90;;;;;;5069110;28;20468;-66
2023/08/08 02:28:12;;;;;;;4.88;1.25;;;13.40;99.90;;;;;;5084025;28;20036;-67
2023/08/08 02:30:38;;;;;;;2.92;1.30;;;13.40;99.90;;;;;;5069126;28;20109;-66
2023/08/08 02:33:04;;;;;;;3.22;1.10;;;13.40;99.90;;;;;;5068389;28;20044;-67
2023/08/08 02:35:30;;;;;;;2.35;1.05;;;13.40;99.90;;;;;;5067780;28;20109;-67
2023/08/08 02:37:56;;;;;;;2.97;0.95;;;13.50;99.90;;;;;;5065960;28;20045;-67
2023/08/08 02:40:23;;;;;;;3.03;1.42;;;13.50;99.90;;;;;;5055439;28;20449;-67
2023/08/08 02:42:49;;;;;;;1.35;1.25;;;13.50;99.90;;;;;;5067777;28;20048;-67
2023/08/08 02:45:15;;;;;;;1.77;1.20;;;13.50;99.90;;;;;;5066974;28;20181;-66
2023/08/08 02:47:41;;;;;;;2.00;1.35;;;13.50;99.90;;;;;;5067911;28;20502;-66
2023/08/08 02:50:07;;;;;;;4.22;1.30;;;13.60;99.90;;;;;;5066553;28;20111;-67
2023/08/08 02:52:33;;;;;;;4.20;0.98;;;13.50;99.90;;;;;;5066967;28;20131;-67
2023/08/08 02:54:58;;;;;;;3.05;1.25;;;13.60;99.90;;;;;;5066341;28;20119;-67
2023/08/08 02:57:24;;;;;;;4.32;1.77;;;13.60;99.90;;;;;;5068092;28;20186;-68
2023/08/08 02:59:50;;;;;;;3.35;1.23;;;13.50;99.90;;;;;;5067201;28;20117;-67
2023/08/08 03:02:16;;;;;;;1.58;1.10;;;13.50;99.90;;;;;;5069045;28;20091;-67
2023/08/08 03:04:41;;;;;;;1.95;1.15;;;13.50;99.90;;;;;;5068196;28;20519;-66
2023/08/08 03:07:07;;;;;;;3.30;1.20;;;13.60;99.90;;;;;;5067905;28;20080;-66
2023/08/08 03:09:33;;;;;;;5.88;1.50;;;13.60;99.90;;;;;;5060642;28;20036;-67
2023/08/08 03:11:59;;;;;;;5.55;1.25;;;13.60;99.90;;;;;;5057956;28;20056;-67
2023/08/08 03:14:24;;;;;;;4.47;0.98;;;13.60;99.90;;;;;;5068097;28;20151;-67
2023/08/08 03:16:50;;;;;;;5.30;1.10;;;13.60;99.90;;;;;;5066897;28;20037;-67
2023/08/08 03:19:16;;;;;;;2.15;1.08;;;13.60;99.90;;;;;;5066948;28;20075;-67
2023/08/08 03:21:41;;;;;;;2.80;1.30;;;13.60;99.90;;;;;;5065074;28;20505;-67
2023/08/08 03:24:07;;;;;;;3.05;0.90;;;13.60;99.90;;;;;;5067945;28;20048;-67
2023/08/08 03:26:34;;;;;;;1.65;1.02;;;13.70;99.90;;;;;;5066523;28;20040;-66
2023/08/08 03:29:00;;;;;;;4.20;1.25;;;13.70;99.90;;;;;;5065692;28;20449;-67
2023/08/08 03:31:26;;;;;;;1.13;0.82;;;13.60;99.90;;;;;;5063831;28;20063;-66
2023/08/08 03:33:52;;;;;;;3.88;1.38;;;13.60;99.90;;;;;;5061343;28;20068;-67
2023/08/08 03:36:18;;;;;;;3.78;0.90;;;13.60;99.90;;;;;;5049837;28;20486;-67
2023/08/08 03:38:45;;;;;;;6.82;1.35;;;13.70;99.90;;;;;;5065051;28;20513;-67
2023/08/08 03:41:12;;;;;;;1.88;1.10;;;13.70;99.90;;;;;;5068529;28;20127;-67
2023/08/08 03:43:40;;;;;;;10.00;3.05;;;13.70;99.90;;;;;;5066782;28;20059;-67
2023/08/08 03:46:06;;;;;;;4.00;1.23;;;13.70;99.90;;;;;;5065959;28;20174;-67
2023/08/08 03:48:32;;;;;;;2.45;1.02;;;13.70;99.90;;;;;;5067599;28;20543;-66
2023/08/08 03:50:57;;;;;;;9.80;1.10;;;13.60;99.90;;;;;;5066692;28;20457;-67
2023/08/08 03:53:24;;;;;;;2.78;0.75;;;13.60;99.90;;;;;;5066467;28;20068;-67
2023/08/08 03:55:50;;;;;;;3.25;1.20;;;13.50;99.90;;;;;;5065073;28;20052;-67
2023/08/08 03:58:16;;;;;;;5.95;0.90;;;13.50;99.90;;;;;;5067090;28;20056;-66
2023/08/08 04:00:46;;;;;;;4.93;1.10;;;13.50;99.90;;;;;;5065917;28;20114;-67
2023/08/08 04:03:16;;;;;;;10.63;1.08;;;13.40;99.90;;;;;;5061437;28;20044;-67
2023/08/08 04:05:48;;;;;;;7.88;1.00;;;13.40;99.90;;;;;;5058911;28;20048;-67
2023/08/08 04:08:15;;;;;;;2.05;1.00;;;13.40;99.90;;;;;;5059337;28;20140;-68
2023/08/08 04:10:41;;;;;;;5.55;1.10;;;13.40;99.90;;;;;;5051604;28;20036;-67
2023/08/08 04:13:06;;;;;;;6.78;1.13;;;13.40;99.90;;;;;;5064762;28;20074;-68
2023/08/08 04:15:32;;;;;;;2.38;0.80;;;13.40;99.90;;;;;;5065080;28;20097;-68
2023/08/08 04:17:58;;;;;;;2.90;0.80;;;13.40;99.90;;;;;;5048285;28;20052;-67
2023/08/08 04:20:24;;;;;;;2.13;0.82;;;13.40;99.90;;;;;;5066255;28;20060;-67
2023/08/08 04:22:49;;;;;;;3.15;0.80;;;13.40;99.90;;;;;;5067088;28;20098;-66
2023/08/08 04:25:15;;;;;;;5.30;1.20;;;13.30;99.90;;;;;;5064776;28;20040;-66
2023/08/08 04:27:41;;;;;;;3.05;0.80;;;13.40;99.90;;;;;;5048999;28;20052;-67
2023/08/08 04:30:07;;;;;;;3.45;0.95;;;13.40;99.90;;;;;;5080545;28;20052;-67
2023/08/08 04:32:33;;;;;;;2.97;0.80;;;13.40;99.90;;;;;;5049594;28;20094;-67
2023/08/08 04:34:58;;;;;;;3.97;0.93;;;13.40;99.90;;;;;;5064222;28;20084;-67
2023/08/08 04:37:24;;;;;;;2.30;0.68;;;13.40;99.90;;;;;;5065941;28;20457;-67
2023/08/08 04:39:50;;;;;;;2.33;0.80;;;13.40;99.90;;;;;;5051973;28;20048;-67
2023/08/08 04:42:16;;;;;;;4.50;0.90;;;13.50;99.90;;;;;;5065455;28;20056;-66
2023/08/08 04:44:41;;;;;;;1.77;0.68;;;13.50;99.90;;;;;;5066765;28;20037;-66
2023/08/08 04:47:07;;;;;;;4.57;0.70;;;13.40;99.90;;;;;;5065233;28;20502;-67
2023/08/08 04:49:33;;;;;;;7.93;1.13;;;13.40;99.90;;;;;;5066908;28;20055;-66
2023/08/08 04:51:59;;;;;;;1.80;0.90;;;13.40;99.90;;;;;;5065482;28;20045;-67
2023/08/08 04:54:24;;;;;;;1.48;0.88;;;13.40;99.90;;;;;;5067492;28;20127;-67
2023/08/08 04:56:50;;;;;;;4.18;0.90;;;13.50;99.90;;;;;;5057232;28;20037;-67
2023/08/08 04:59:16;;;;;;;2.47;0.90;;;13.40;99.90;;;;;;5055124;28;20056;-66
2023/08/08 05:01:42;;;;;;;4.25;1.10;;;13.40;99.90;;;;;;5058507;28;20060;-66
2023/08/08 05:04:08;;;;;;;1.38;0.73;;;13.40;99.90;;;;;;5066111;28;20508;-67
2023/08/08 05:06:34;;;;;;;6.32;0.70;;;13.50;99.90;;;;;;5065058;28;20133;-67
2023/08/08 05:09:00;;;;;;;4.88;0.90;;;13.50;99.90;;;;;;5061974;28;20123;-67
2023/08/08 05:11:25;;;;;;;1.52;0.75;;;13.50;99.90;;;;;;5070075;28;20055;-67
2023/08/08 05:13:51;;;;;;;1.50;0.57;;;13.50;99.90;;;;;;5063548;28;20049;-67
2023/08/08 05:16:17;;;;;;;3.00;0.85;;;13.50;99.90;;;;;;5066658;28;20106;-67
2023/08/08 05:18:46;;;;;;;3.20;1.00;;;13.60;99.90;;;;;;5065378;28;20139;-66
2023/08/08 05:21:12;;;;;;;3.50;0.60;;;13.60;99.90;;;;;;5048520;28;20067;-67
2023/08/08 05:23:38;;;;;;;1.52;0.70;;;13.70;99.90;;;;;;5066801;28;20072;-67
2023/08/08 05:26:03;;;;;;;2.38;1.10;;;13.80;99.90;;;;;;5063642;28;20403;-67
2023/08/08 05:28:29;;;;;;;6.05;1.15;;;13.80;99.90;;;;;;5082297;28;20095;-67
2023/08/08 05:30:56;;;;;;;2.95;0.70;;;13.90;99.90;;;;;;5046702;28;20053;-67
2023/08/08 05:33:22;;;;;;;6.00;0.98;;;13.90;99.90;;;;;;5065934;28;20040;-67
2023/08/08 05:35:48;;;;;;;5.63;0.95;;;14.00;99.90;;;;;;5064990;28;20060;-67
2023/08/08 05:38:14;;;;;;;1.73;0.70;;;14.10;99.90;;;;;;5066536;28;20052;-67
2023/08/08 05:40:39;;;;;;;4.43;0.82;;;14.10;99.90;;;;;;5064305;28;20045;-67
2023/08/08 05:43:05;;;;;;;3.70;0.90;;;14.20;99.90;;;;;;5067828;28;20584;-66
2023/08/08 05:45:31;;;;;;;6.38;0.82;;;14.30;99.90;;;;;;5070344;28;20040;-67
2023/08/08 05:47:59;;;;;;;2.17;0.90;;;14.30;99.90;;;;;;5068327;28;20126;-67
2023/08/08 05:50:25;;;;;;;7.53;1.00;;;14.40;99.90;;;;;;5061691;28;20159;-69
2023/08/08 05:52:50;;;;;;;4.57;1.00;;;14.50;99.90;;;;;;5060856;28;20119;-67
2023/08/08 05:55:16;;;;;;;5.63;0.93;;;14.50;99.90;;;;;;5068753;28;20040;-67
2023/08/08 05:57:42;;;;;;;1.13;0.55;;;14.60;99.90;;;;;;5068820;28;20562;-67
2023/08/08 06:00:11;;;;;;;4.50;0.88;;;14.70;99.90;;;;;;5068952;28;20048;-67
2023/08/08 06:02:37;;;;;;;2.88;1.02;;;14.80;99.90;;;;;;5070720;28;20091;-67
2023/08/08 06:05:04;;;;;;;6.78;1.25;;;14.90;99.90;;;;;;5066618;28;20044;-67
2023/08/08 06:07:30;;;;;;;3.13;0.90;;;15.00;99.90;;;;;;5069608;28;20064;-67
2023/08/08 06:09:56;;;;;;;6.28;0.77;;;15.00;99.90;;;;;;5033559;28;20497;-67
2023/08/08 06:12:22;;;;;;;5.93;1.10;;;15.00;99.90;;;;;;5068889;28;20490;-67
2023/08/08 06:14:48;;;;;;;3.90;0.90;;;15.10;99.90;;;;;;5066894;28;20472;-67
2023/08/08 06:17:14;;;;;;;5.95;1.38;;;15.10;99.90;;;;;;5069679;28;20040;-67
2023/08/08 06:19:40;;;;;;;5.60;1.00;;;15.10;99.90;;;;;;5067216;28;20040;-67
2023/08/08 06:22:06;;;;;;;4.57;0.98;;;15.10;99.90;;;;;;5066259;28;20098;-67
2023/08/08 06:24:31;;;;;;;6.22;0.93;;;15.20;99.90;;;;;;5076521;28;20032;-68
2023/08/08 06:26:57;;;;;;;6.90;0.60;;;15.30;99.90;;;;;;5068217;28;20151;-67
2023/08/08 06:29:23;;;;;;;3.13;0.88;;;15.30;99.90;;;;;;5070856;28;20041;-67
2023/08/08 06:31:49;;;;;;;4.53;0.88;;;15.40;99.90;;;;;;5075115;28;20098;-67
2023/08/08 06:34:15;;;;;;;2.38;0.63;;;15.40;99.90;;;;;;5062730;28;20036;-67
2023/08/08 06:36:41;;;;;;;4.05;0.85;;;15.30;99.90;;;;;;5070006;28;20044;-67
2023/08/08 06:39:07;;;;;;;3.33;0.90;;;15.30;99.90;;;;;;5057804;28;20098;-68
2023/08/08 06:41:32;;;;;;;3.25;0.88;;;15.30;99.90;;;;;;5067199;28;20040;-67
2023/08/08 06:43:58;;;;;;;6.25;0.75;;;15.30;99.90;;;;;;5061250;28;20041;-67
2023/08/08 06:46:24;;;;;;;1.85;0.98;;;15.30;99.90;;;;;;5065076;28;20060;-68
2023/08/08 06:48:52;;;;;;;3.60;0.63;;;15.40;99.90;;;;;;5063884;28;20056;-68
2023/08/08 06:51:18;;;;;;;6.88;1.50;;;15.50;99.90;;;;;;5059603;28;20041;-69
2023/08/08 06:53:44;;;;;;;8.43;1.05;;;15.60;99.90;;;;;;5067241;28;20054;-68
2023/08/08 06:56:10;;;;;;;9.48;2.40;;;15.70;99.90;;;;;;5059992;28;20041;-69
2023/08/08 06:58:35;;;;;;;3.75;0.77;;;15.80;99.90;;;;;;5068176;28;20079;-67
2023/08/08 07:01:02;;;;;;;5.53;0.65;;;15.90;99.90;;;;;;5059332;28;20049;-68
2023/08/08 07:03:28;;;;;;;3.42;1.00;;;16.00;99.90;;;;;;5066111;28;20049;-68
2023/08/08 07:05:53;;;;;;;6.75;1.50;;;16.10;99.90;;;;;;5052012;28;20553;-67
2023/08/08 07:08:20;;;;;;;6.05;1.20;;;16.20;99.90;;;;;;5039962;28;20132;-68
2023/08/08 07:10:45;;;;;;;7.30;0.90;;;16.30;99.90;;;;;;5066221;28;20071;-68
2023/08/08 07:13:11;;;;;;;3.65;0.95;;;16.40;99.90;;;;;;5067994;28;20040;-69
2023/08/08 07:15:37;;;;;;;0.38;0.22;;;16.60;99.90;;;;;;5065751;28;20391;-68
2023/08/08 07:18:04;;;;;;;4.88;0.90;;;16.60;99.90;;;;;;5065800;28;20437;-69
2023/08/08 07:20:30;;;;;;;5.50;1.17;;;16.60;99.90;;;;;;5068603;28;20123;-68
2023/08/08 07:22:56;;;;;;;4.43;0.80;;;16.60;99.90;;;;;;5065642;28;20052;-69
2023/08/08 07:25:22;;;;;;;2.55;1.10;;;16.60;99.90;;;;;;5057802;28;20114;-68
2023/08/08 07:27:47;;;;;;;2.60;0.80;;;16.80;99.90;;;;;;5061419;28;20044;-68
2023/08/08 07:30:13;;;;;;;2.88;0.80;;;16.90;99.90;;;;;;5081445;28;20049;-68
2023/08/08 07:32:39;;;;;;;6.43;0.88;;;16.90;99.90;;;;;;5067273;28;20064;-68
2023/08/08 07:35:08;;;;;;;4.80;0.90;;;16.90;99.90;;;;;;5047610;28;20044;-68
2023/08/08 07:37:35;;;;;;;6.00;1.03;;;16.80;99.90;;;;;;5059447;28;20044;-69
2023/08/08 07:40:01;;;;;;;1.95;0.60;;;16.70;99.90;;;;;;5067721;28;20180;-68
2023/08/08 07:42:27;;;;;;;2.75;0.80;;;16.80;99.90;;;;;;5066974;28;20414;-68
2023/08/08 07:44:54;;;;;;;2.92;0.88;;;17.00;99.90;;;;;;5065827;28;20044;-69
2023/08/08 07:47:19;;;;;;;9.50;1.15;;;17.40;99.90;;;;;;5063418;28;20044;-69
2023/08/08 07:49:45;;;;;;;4.25;1.05;;;17.50;99.90;;;;;;5053873;28;20045;-69
2023/08/08 07:52:11;;;;;;;4.22;0.90;;;17.40;97.50;;;;;;5055797;28;20049;-68
2023/08/08 07:54:37;;;;;;;6.35;0.82;;;17.40;98.90;;;;;;5057870;28;20039;-68
2023/08/08 07:57:03;;;;;;;3.85;0.85;;;17.20;98.10;;;;;;5058610;28;20040;-68
2023/08/08 07:59:30;;;;;;;3.42;0.55;;;17.10;99.80;;;;;;5059030;28;20049;-69
2023/08/08 08:01:56;;;;;;;6.32;1.02;;;17.10;99.10;;;;;;5069626;28;20036;-68
2023/08/08 08:04:22;;;;;;;2.13;0.73;;;17.30;99.90;;;;;;5046110;28;20051;-69
2023/08/08 08:06:47;;;;;;;9.18;0.93;;;17.40;99.40;;;;;;5065282;28;20040;-69
2023/08/08 08:09:13;;;;;;;2.47;0.85;;;17.40;98.00;;;;;;5068000;28;20048;-68
2023/08/08 08:11:39;;;;;;;6.30;1.05;;;17.40;94.70;;;;;;5060469;28;20502;-69
2023/08/08 08:14:04;;;;;;;6.95;1.63;;;17.40;97.10;;;;;;5063962;28;20045;-68
2023/08/08 08:16:30;;;;;;;4.93;1.15;;;17.40;97.40;;;;;;5067034;28;20047;-67
2023/08/08 08:18:56;;;;;;;0.43;0.40;;;17.30;97.40;;;;;;5065768;28;20512;-68
2023/08/08 08:21:21;;;;;;;1.48;0.52;;;17.10;96.50;;;;;;5066900;28;20044;-68
2023/08/08 08:23:48;;;;;;;5.95;1.10;;;16.90;97.30;;;;;;5081087;28;20414;-69
2023/08/08 08:26:13;;;;;;;1.80;0.10;;;16.80;95.10;;;;;;5048191;28;20040;-68
2023/08/08 08:28:39;;;;;;;4.03;0.80;;;16.70;99.00;;;;;;5064575;28;20045;-69
2023/08/08 08:31:07;;;;;;;2.33;0.75;;;16.80;99.00;;;;;;5065850;28;20047;-69
2023/08/08 08:33:32;;;;;;;4.07;0.85;;;16.80;99.60;;;;;;5065261;28;20052;-68
2023/08/08 08:35:58;;;;;;;3.80;0.70;;;16.80;99.90;;;;;;5066203;28;20041;-69
2023/08/08 08:38:24;;;;;;;1.80;0.85;;;17.00;99.90;;;;;;5065763;28;20115;-69
2023/08/08 08:40:53;;;;;;;6.13;0.52;;;17.00;99.90;;;;;;5081194;28;20410;-67
2023/08/08 08:43:18;;;;;;;3.55;0.93;;;17.10;97.70;;;;;;5062705;28;20513;-68
2023/08/08 08:45:50;;;;;;;2.05;0.95;;;17.10;97.40;;;;;;5056327;28;20052;-68
2023/08/08 08:48:17;;;;;;;2.20;0.90;;;17.00;98.10;;;;;;5066303;28;20044;-68
2023/08/08 08:50:45;;;;;;;3.90;0.77;;;17.00;99.30;;;;;;5065508;28;20036;-68
2023/08/08 08:53:12;;;;;;;0.63;0.52;;;17.00;99.90;;;;;;5065999;28;20048;-67
2023/08/08 08:55:39;;;;;;;1.92;0.65;;;17.00;99.90;;;;;;5065793;28;20475;-68
2023/08/08 08:58:06;;;;;;;3.67;1.08;;;17.00;99.90;;;;;;5063269;28;20055;-69
2023/08/08 09:00:32;;;;;;;1.45;0.88;;;17.20;97.90;;;;;;5068542;28;20487;-69
2023/08/08 09:02:58;;;;;;;0.30;0.30;;;17.30;95.60;;;;;;5062527;28;20059;-68
2023/08/08 09:05:26;;;;;;;7.88;0.73;;;17.40;94.20;;;;;;5067415;28;20044;-67
2023/08/08 09:07:52;;;;;;;1.90;0.55;;;17.30;95.30;;;;;;5066243;28;20044;-67
2023/08/08 09:10:18;;;;;;;2.42;0.75;;;17.30;98.40;;;;;;5066861;28;20059;-69
2023/08/08 09:12:45;;;;;;;4.68;0.98;;;17.30;93.00;;;;;;5049090;28;20487;-68
2023/08/08 09:15:12;;;;;;;3.58;0.63;;;17.20;99.90;;;;;;5066987;28;20036;-67
2023/08/08 09:17:42;;;;;;;1.38;0.50;;;16.90;99.90;;;;;;5069330;28;20040;-68
2023/08/08 09:20:10;;;;;;;2.28;0.80;;;16.90;99.90;;;;;;5069111;28;20060;-69
2023/08/08 09:22:37;;;;;;;2.63;0.77;;;17.00;99.90;;;;;;5071472;28;20399;-68
2023/08/08 09:25:04;;;;;;;6.60;0.88;;;17.10;99.90;;;;;;5068446;28;20111;-68
2023/08/08 09:27:31;;;;;;;8.38;1.70;;;17.40;99.90;;;;;;5069483;28;20106;-68
2023/08/08 09:29:57;;;;;;;2.53;0.60;;;17.50;99.90;;;;;;5049411;28;20126;-69
2023/08/08 09:32:22;;;;;;;1.20;0.50;;;17.40;99.90;;;;;;5053105;28;20478;-69
2023/08/08 09:34:48;;;;;;;3.45;0.70;;;17.40;99.90;;;;;;5070949;28;20044;-68
2023/08/08 09:37:14;;;;;;;4.82;1.13;;;17.50;99.90;;;;;;5076212;28;20040;-67
2023/08/08 09:39:40;;;;;;;10.75;1.42;;;17.30;99.90;;;;;;5072574;28;20045;-69
2023/08/08 09:42:08;;;;;;;2.95;1.10;;;17.00;99.90;;;;;;5073975;28;20052;-69
2023/08/08 09:44:39;;;;;;;14.70;1.25;;;16.50;99.90;;;;;;5084781;28;20379;-68
2023/08/08 09:47:05;;;;;;;3.60;0.95;;;16.50;99.90;;;;;;5086639;28;20055;-68
2023/08/08 09:49:34;;;;;;;2.45;0.82;;;16.70;99.90;;;;;;5084932;28;20462;-68
2023/08/08 09:52:00;;;;;;;6.57;1.27;;;17.00;99.90;;;;;;5068273;28;20494;-69
2023/08/08 09:54:26;;;;;;;5.25;1.10;;;17.20;99.90;;;;;;5066241;28;20053;-67
2023/08/08 09:56:53;;;;;;;5.38;1.13;;;17.40;99.90;;;;;;5056007;28;20127;-68
2023/08/08 09:59:20;;;;;;;4.13;0.85;;;17.50;99.90;;;;;;5056386;28;20078;-67
2023/08/08 10:01:47;;;;;;;2.75;1.10;;;17.50;99.90;;;;;;5071625;28;20052;-68
2023/08/08 10:04:13;;;;;;;4.22;1.00;;;17.40;99.90;;;;;;5054776;28;20261;-68
2023/08/08 10:06:39;;;;;;;11.32;2.60;;;17.30;99.90;;;;;;5052134;28;20575;-71
2023/08/08 10:09:06;;;;;;;5.45;0.98;;;17.00;99.90;;;;;;5051022;28;20136;-71
2023/08/08 10:11:33;;;;;;;6.50;1.20;;;16.60;99.90;;;;;;5055309;28;20240;-70
2023/08/08 10:14:02;;;;;;;5.53;0.93;;;16.20;99.90;;;;;;5068138;28;20593;-70
2023/08/08 10:16:31;;;;;;;5.40;1.08;;;15.90;99.90;;;;;;5066283;28;20098;-72
2023/08/08 10:19:02;;;;;;;6.03;1.07;;;15.80;99.90;;;;;;5068476;28;20053;-71
2023/08/08 10:21:31;;;;;;;2.55;0.80;;;15.80;99.90;;;;;;5066952;28;20058;-71
2023/08/08 10:24:08;;;;;;;7.63;1.13;;;15.70;99.90;;;;;;5051535;28;20110;-72
2023/08/08 10:26:50;;;;;;;4.25;1.05;;;15.60;99.90;;;;;;5064040;28;20406;-73
2023/08/08 10:29:20;;;;;;;3.80;1.05;;;15.90;99.90;;;;;;5064815;28;20220;-72
2023/08/08 10:32:12;;;;;;;;;;;16.10;99.90;;;;;;5067991;28;20127;-72
2023/08/08 10:34:41;;;;;;;4.07;1.20;;;16.10;99.90;;;;;;5067335;28;20341;-72
2023/08/08 10:37:15;;;;;;;3.83;0.93;;;16.20;99.90;;;;;;5082380;28;20098;-73
2023/08/08 10:39:54;;;;;;;4.75;1.58;;;16.10;99.90;;;;;;5083640;28;20084;-73
2023/08/08 10:42:22;;;;;;;3.40;0.80;;;16.10;99.90;;;;;;5074316;28;20127;-72
2023/08/08 10:44:56;;;;;;;2.83;0.70;;;16.20;99.90;;;;;;5075236;28;20510;-74
2023/08/08 10:47:30;;;;;;;5.07;1.00;;;16.10;99.90;;;;;;5066932;28;20051;-71
2023/08/08 10:49:58;;;;;;;4.85;0.82;;;16.20;99.90;;;;;;5063917;28;20090;-73
2023/08/08 10:52:24;;;;;;;7.57;1.13;;;16.50;99.90;;;;;;5070780;28;20048;-72
2023/08/08 10:54:56;;;;;;;6.38;1.20;;;16.70;99.90;;;;;;5066833;28;20083;-72
2023/08/08 10:57:26;;;;;;;3.15;1.02;;;16.70;99.90;;;;;;5047283;28;20284;-72
2023/08/08 10:59:52;;;;;;;3.13;1.13;;;16.70;99.90;;;;;;5055675;28;20048;-72
2023/08/08 11:02:21;;;;;;;2.72;0.75;;;16.70;99.90;;;;;;5053626;28;20479;-73
2023/08/08 11:04:48;;;;;;;2.60;0.77;;;16.50;99.90;;;;;;5068549;28;20493;-72
2023/08/08 11:07:15;;;;;;;3.35;0.80;;;16.50;99.90;;;;;;5064714;28;20087;-71
2023/08/08 11:09:42;;;;;;;6.28;1.60;;;16.60;99.90;;;;;;5062681;28;20044;-72
2023/08/08 11:12:14;;;;;;;1.35;0.68;;;16.80;99.90;;;;;;5059188;28;20052;-72
2023/08/08 11:14:40;;;;;;;2.60;0.80;;;17.10;99.90;;;;;;5066339;28;20049;-72
2023/08/08 11:17:06;;;;;;;5.20;0.80;;;17.40;99.90;;;;;;5074053;28;20066;-72
2023/08/08 11:19:39;;;;;;;1.88;0.70;;;17.40;95.30;;;;;;5079665;28;20493;-71
2023/08/08 11:22:11;;;;;;;2.95;1.00;;;17.30;97.70;;;;;;5058624;28;20056;-70
2023/08/08 11:24:37;;;;;;;2.25;0.82;;;17.20;98.80;;;;;;5072746;28;20048;-72
2023/08/08 11:27:04;;;;;;;4.05;1.50;;;17.20;91.50;;;;;;5071249;28;20032;-72
2023/08/08 11:29:30;;;;;;;2.45;1.23;;;17.30;99.70;;;;;;5070444;28;20051;-72
2023/08/08 11:32:05;;;;;;;3.95;0.90;;;17.40;92.90;;;;;;5068221;28;20144;-71
2023/08/08 11:34:33;;;;;;;2.97;1.30;;;17.50;93.60;;;;;;5066185;28;20123;-71
2023/08/08 11:37:00;;;;;;;3.97;0.80;;;17.50;86.00;;;;;;5044364;28;20387;-71
2023/08/08 11:39:26;;;;;;;5.95;0.90;;;17.30;73.10;;;;;;5056786;28;20048;-72
2023/08/08 11:41:52;;;;;;;4.63;0.90;;;17.30;64.20;;;;;;5047808;28;20044;-71
2023/08/08 11:44:19;;;;;;;4.22;0.68;;;17.30;66.20;;;;;;5048757;28;20394;-71
2023/08/08 11:46:46;;;;;;;3.92;1.05;;;17.30;77.70;;;;;;5051056;28;20059;-72
2023/08/08 11:49:14;;;;;;;5.03;1.17;;;17.10;79.40;;;;;;5057473;28;20059;-71
2023/08/08 11:51:42;;;;;;;2.00;0.68;;;16.70;86.80;;;;;;5042138;28;20036;-70
2023/08/08 11:54:08;;;;;;;2.25;0.75;;;16.60;94.00;;;;;;5070532;28;20052;-71
2023/08/08 11:56:34;;;;;;;1.73;0.82;;;16.50;92.70;;;;;;5050457;28;20172;-71
2023/08/08 11:59:01;;;;;;;3.78;1.00;;;16.60;92.10;;;;;;5069713;28;20040;-71
2023/08/08 12:01:28;;;;;;;1.85;0.82;;;16.80;92.70;;;;;;5071507;28;20398;-71
2023/08/08 12:03:54;;;;;;;1.00;0.43;;;17.20;87.90;;;;;;5074672;28;20063;-71
2023/08/08 12:06:20;;;;;;;6.45;0.85;;;17.60;70.00;;;;;;5062680;28;20438;-71
2023/08/08 12:08:47;;;;;;;4.75;0.70;;;17.70;66.30;;;;;;5042996;28;20778;-72
2023/08/08 12:11:15;;;;;;;3.05;0.80;;;18.00;59.30;;;;;;5059403;28;20083;-72
2023/08/08 12:13:42;;;;;;;4.13;0.98;;;18.10;47.90;;;;;;5064621;28;20079;-72
2023/08/08 12:16:12;;;;;;;3.25;0.90;;;18.00;44.90;;;;;;5065782;28;20059;-71
2023/08/08 12:18:39;;;;;;;3.17;0.95;;;17.50;53.90;;;;;;5065305;28;20052;-70
2023/08/08 12:21:06;;;;;;;2.30;0.82;;;17.30;57.10;;;;;;5075139;28;20044;-71
2023/08/08 12:23:33;;;;;;;6.53;0.90;;;17.10;71.80;;;;;;5045973;28;20058;-70
2023/08/08 12:25:59;;;;;;;2.33;0.82;;;16.90;72.00;;;;;;5063357;28;20082;-71
2023/08/08 12:28:25;;;;;;;3.83;1.00;;;17.00;66.80;;;;;;5065762;28;20557;-71
2023/08/08 12:30:51;;;;;;;4.97;0.93;;;17.00;64.40;;;;;;5063969;28;20590;-71
2023/08/08 12:33:17;;;;;;;6.13;1.10;;;17.00;71.30;;;;;;5063165;28;20075;-71
2023/08/08 12:35:43;;;;;;;1.08;0.80;;;17.30;76.90;;;;;;5047633;28;20052;-71
2023/08/08 12:38:10;;;;;;;4.30;1.23;;;17.40;63.20;;;;;;5032147;28;20045;-70
2023/08/08 12:40:36;;;;;;;4.25;1.10;;;17.40;56.40;;;;;;5066204;28;20052;-71
2023/08/08 12:43:02;;;;;;;3.22;1.00;;;17.60;74.30;;;;;;5047121;28;20098;-70
2023/08/08 12:45:27;;;;;;;2.42;0.57;;;18.00;43.60;;;;;;5065677;28;20041;-71